Search for airport 
image banner adimage banner adimage banner ad
image banner ad

32NV - Henderson Hospital

Located in Henderson, United States

ICAO - 32NV, IATA -

Data provided by Airmate  

General information

Coordinates: N36°4'20" W115°1'47"
Elevation is 1664 feet MSL.
 
View others Airports in Nevada

Operational data

Special qualification required
Current time UTC:
Current local time:
Weather at : KLAS - Mc Carran Intl ( 11 km )
METAR: KLAS 130156Z 10009KT 10SM FEW250 38/M11 A2977 RMK AO2 SLP049 T03831106
TAF: KLAS 122320Z 1300/1406 10007KT P6SM SKC FM130400 20006KT P6SM FEW250 FM131400 VRB05KT P6SM FEW250 FM132000 17010G18KT P6SM FEW250 FM132300 20014G24KT P6SM FEW250 FM140300 23010KT P6SM FEW250
View NOTAMs / SUP AIP / TFR affecting this airport [VIEW]
Communications frequencies: [VIEW]

Runways:

Airport contact information

Address: Henderson United States

Satellite view of 32NV